Rison, Arkansas
Current Conditions -  °F | °C
As of 6:53 PM on Saturday 20 Dec 2014 (Local Time) from KPBF Reporting Station
Clear Clear  
Wind Chill: 37°   Ceiling: Unl
Heat Index: 41°   Visibility: 10mi
Dew Point: 35°   Wind: 6mph
Humidity: 79%   Direction: 10°N
Pressure: 30.23"   Gusts: NA
Location:  33.96°N, 92.19°W
Report Text: KPBF 210053Z AUTO 01005KT 10SM CLR 05/02 A3023 RMK AO2 SLP238 T00500017
Loading
Personal Weather Stations






























Interactive Weather Map New forecast layout! Learn more

10-Day Weather Forecast

Advertisements
Track Severe Weather on mobile